createdAt,value
2022-10-17T00:01:15.467Z,15.00
2022-10-17T00:03:43.973Z,15.00
2022-10-17T00:06:14.913Z,14.90
2022-10-17T00:08:45.149Z,14.90
2022-10-17T00:11:17.652Z,14.80
2022-10-17T00:13:48.003Z,14.80
2022-10-17T00:16:23.798Z,14.70
2022-10-17T00:18:52.119Z,14.70
2022-10-17T00:21:21.604Z,14.60
2022-10-17T00:23:49.971Z,14.50
2022-10-17T00:26:18.427Z,14.50
2022-10-17T00:28:49.754Z,14.50
2022-10-17T00:31:19.493Z,14.40
2022-10-17T00:33:48.792Z,14.40
2022-10-17T00:36:20.046Z,14.40
2022-10-17T00:38:51.337Z,14.30
2022-10-17T00:41:23.287Z,14.30
2022-10-17T00:43:55.541Z,14.30
2022-10-17T00:46:33.010Z,14.30
2022-10-17T00:49:05.774Z,14.20
2022-10-17T00:51:39.602Z,14.20
2022-10-17T00:54:08.992Z,14.20
2022-10-17T00:56:38.383Z,14.20
2022-10-17T00:59:10.176Z,14.20
2022-10-17T01:01:40.946Z,14.20
2022-10-17T01:04:10.625Z,14.10
2022-10-17T01:06:42.927Z,14.10
2022-10-17T01:09:13.688Z,14.00
2022-10-17T01:11:51.124Z,14.00
2022-10-17T01:14:29.647Z,14.00
2022-10-17T01:17:07.030Z,13.90
2022-10-17T01:20:00.483Z,13.90
2022-10-17T01:22:33.893Z,13.90
2022-10-17T01:25:24.684Z,13.90
2022-10-17T01:28:02.431Z,13.80
2022-10-17T01:30:53.120Z,13.80
2022-10-17T01:33:35.340Z,13.80
2022-10-17T01:36:10.756Z,13.70
2022-10-17T01:38:45.370Z,13.70
2022-10-17T01:41:20.309Z,13.70
2022-10-17T01:43:54.885Z,13.80
2022-10-17T01:46:28.036Z,13.80
2022-10-17T01:49:01.291Z,13.80
2022-10-17T01:51:34.105Z,13.80
2022-10-17T01:54:06.387Z,13.80
2022-10-17T01:56:39.200Z,13.80
2022-10-17T01:59:14.970Z,13.80
2022-10-17T02:01:45.383Z,13.80
2022-10-17T02:04:16.481Z,13.70
2022-10-17T02:06:44.827Z,13.60
2022-10-17T02:09:20.413Z,13.60
2022-10-17T02:12:17.602Z,13.50
2022-10-17T02:15:01.388Z,13.50
2022-10-17T02:17:40.730Z,13.50
2022-10-17T02:20:18.382Z,13.40
2022-10-17T02:22:52.464Z,13.40
2022-10-17T02:25:30.558Z,13.40
2022-10-17T02:28:07.424Z,13.40
2022-10-17T02:30:41.316Z,13.30
2022-10-17T02:33:14.717Z,13.30
2022-10-17T02:35:50.757Z,13.30
2022-10-17T02:38:20.567Z,13.20
2022-10-17T02:40:51.512Z,13.20
2022-10-17T02:43:21.546Z,13.10
2022-10-17T02:45:51.091Z,13.10
2022-10-17T02:48:26.183Z,13.10
2022-10-17T02:51:06.171Z,13.00
2022-10-17T02:53:40.310Z,13.10
2022-10-17T02:56:15.871Z,13.00
2022-10-17T02:58:47.139Z,13.10
2022-10-17T03:01:16.750Z,13.10
2022-10-17T03:03:45.202Z,13.10
2022-10-17T03:06:15.154Z,13.00
2022-10-17T03:08:43.423Z,13.10
2022-10-17T03:11:12.362Z,13.10
2022-10-17T03:13:41.113Z,13.10
2022-10-17T03:16:09.741Z,13.20
2022-10-17T03:18:39.679Z,13.20
2022-10-17T03:21:08.115Z,13.20
2022-10-17T03:23:38.226Z,13.20
2022-10-17T03:26:08.709Z,13.20
2022-10-17T03:28:37.635Z,13.20
2022-10-17T03:31:10.420Z,13.30
2022-10-17T03:33:39.892Z,13.30
2022-10-17T03:36:10.011Z,13.30
2022-10-17T03:38:40.351Z,13.20
2022-10-17T03:41:09.606Z,13.20
2022-10-17T03:43:40.201Z,13.20
2022-10-17T03:46:09.500Z,13.20
2022-10-17T03:48:38.897Z,13.10
2022-10-17T03:51:10.085Z,13.10
2022-10-17T03:53:46.159Z,13.10
2022-10-17T03:56:17.055Z,13.00
2022-10-17T03:58:47.282Z,13.00
2022-10-17T04:01:19.080Z,13.00
2022-10-17T04:03:50.677Z,13.00
2022-10-17T04:06:20.271Z,13.00
2022-10-17T04:08:50.535Z,12.90
2022-10-17T04:11:37.352Z,12.90
2022-10-17T04:14:05.994Z,12.90
2022-10-17T04:16:34.513Z,12.90
2022-10-17T04:19:06.951Z,12.90
2022-10-17T04:21:42.145Z,12.80
2022-10-17T04:24:12.972Z,12.80
2022-10-17T04:26:55.436Z,12.80
2022-10-17T04:29:26.935Z,12.80
2022-10-17T04:32:02.618Z,12.70
2022-10-17T04:34:36.677Z,12.70
2022-10-17T04:37:04.967Z,12.70
2022-10-17T04:39:34.759Z,12.60
2022-10-17T04:42:03.018Z,12.60
2022-10-17T04:44:33.580Z,12.60
2022-10-17T04:47:02.617Z,12.60
2022-10-17T04:49:30.923Z,12.50
2022-10-17T04:52:08.029Z,12.50
2022-10-17T04:54:43.765Z,12.40
2022-10-17T04:57:14.715Z,12.40
2022-10-17T04:59:48.148Z,12.40
2022-10-17T05:02:36.209Z,12.40
2022-10-17T05:05:05.588Z,12.40
2022-10-17T05:07:33.962Z,12.40
2022-10-17T05:10:06.571Z,12.30
2022-10-17T05:12:35.066Z,12.30
2022-10-17T05:15:03.690Z,12.30
2022-10-17T05:17:34.530Z,12.30
2022-10-17T05:20:02.833Z,12.30
2022-10-17T05:22:33.117Z,12.30
2022-10-17T05:25:02.275Z,12.30
2022-10-17T05:27:32.253Z,12.20
2022-10-17T05:30:00.640Z,12.30
2022-10-17T05:32:32.213Z,12.20
2022-10-17T05:35:00.894Z,12.20
2022-10-17T05:37:30.770Z,12.20
2022-10-17T05:39:59.392Z,12.20
2022-10-17T05:42:28.565Z,12.20
2022-10-17T05:45:01.074Z,12.20
2022-10-17T05:47:29.548Z,12.20
2022-10-17T05:49:58.012Z,12.20
2022-10-17T05:52:35.625Z,12.20
2022-10-17T05:55:11.929Z,12.20
2022-10-17T05:57:41.109Z,12.20
2022-10-17T06:00:16.501Z,12.20
2022-10-17T06:02:50.487Z,12.30
2022-10-17T06:05:20.969Z,12.30
2022-10-17T06:07:52.491Z,12.30
2022-10-17T06:10:21.758Z,12.40
2022-10-17T06:12:50.286Z,12.40
2022-10-17T06:15:20.146Z,12.50
2022-10-17T06:17:54.701Z,12.60
2022-10-17T06:20:23.097Z,12.60
2022-10-17T06:22:51.500Z,12.70
2022-10-17T06:25:31.416Z,12.80
2022-10-17T06:27:59.892Z,12.90
2022-10-17T06:30:30.517Z,13.00
2022-10-17T06:32:58.875Z,13.00
2022-10-17T06:35:27.483Z,13.10
2022-10-17T06:37:55.808Z,13.10
2022-10-17T06:40:24.878Z,13.20
2022-10-17T06:42:53.267Z,13.30
2022-10-17T06:45:47.663Z,13.30
2022-10-17T06:48:19.565Z,13.40
2022-10-17T06:51:11.440Z,13.50
2022-10-17T06:53:50.272Z,13.60
2022-10-17T06:56:50.622Z,13.70
2022-10-17T06:59:37.187Z,13.80
2022-10-17T07:02:12.956Z,13.90
2022-10-17T07:04:41.298Z,14.00
2022-10-17T07:07:09.615Z,14.00
2022-10-17T07:09:38.631Z,14.10
2022-10-17T07:12:08.518Z,14.10
2022-10-17T07:14:38.339Z,14.20
2022-10-17T07:17:06.670Z,14.20
2022-10-17T07:19:36.420Z,14.20
2022-10-17T07:22:05.236Z,14.30
2022-10-17T07:24:34.801Z,14.30
2022-10-17T07:27:14.171Z,14.40
2022-10-17T07:29:42.742Z,14.50
2022-10-17T07:32:20.543Z,14.60
2022-10-17T07:34:50.857Z,14.60
2022-10-17T07:37:19.229Z,14.70
2022-10-17T07:39:54.264Z,14.80
2022-10-17T07:42:22.765Z,14.90
2022-10-17T07:44:51.968Z,15.00
2022-10-17T07:47:21.862Z,15.20
2022-10-17T07:49:52.935Z,15.30
2022-10-17T07:52:21.467Z,15.40
2022-10-17T07:54:50.579Z,15.40
2022-10-17T07:57:19.041Z,15.60
2022-10-17T07:59:48.014Z,15.70
2022-10-17T08:02:22.038Z,15.70
2022-10-17T08:04:50.488Z,15.80
2022-10-17T08:07:25.332Z,15.90
2022-10-17T08:09:56.978Z,16.00
2022-10-17T08:12:32.550Z,16.10
2022-10-17T08:15:16.630Z,16.20
2022-10-17T08:20:56.762Z,16.40
2022-10-17T08:23:29.773Z,16.50
2022-10-17T08:26:00.893Z,16.60
2022-10-17T08:28:31.730Z,16.70
2022-10-17T08:31:04.487Z,16.80
2022-10-17T08:33:33.338Z,17.00
2022-10-17T08:36:08.302Z,17.10
2022-10-17T08:38:43.627Z,17.20
2022-10-17T08:41:23.610Z,17.40
2022-10-17T08:44:07.735Z,17.50
2022-10-17T08:47:04.016Z,17.70
2022-10-17T08:53:37.661Z,18.00
2022-10-17T08:56:47.989Z,18.10
2022-10-17T08:59:22.724Z,18.30
2022-10-17T09:02:03.323Z,18.50
2022-10-17T09:04:47.402Z,18.70
2022-10-17T09:07:22.050Z,18.90
2022-10-17T09:10:01.223Z,19.10
2022-10-17T09:12:39.180Z,19.20
2022-10-17T09:15:35.482Z,19.30
2022-10-17T09:18:08.787Z,19.40
2022-10-17T09:20:41.739Z,19.50
2022-10-17T09:23:14.549Z,19.60
2022-10-17T09:25:45.901Z,19.70
2022-10-17T09:28:19.472Z,19.80
2022-10-17T09:30:51.680Z,19.90
2022-10-17T09:33:35.533Z,20.00
2022-10-17T09:36:14.941Z,20.10
2022-10-17T09:38:45.649Z,20.20
2022-10-17T09:44:18.493Z,20.40
2022-10-17T09:46:58.455Z,20.40
2022-10-17T09:49:32.914Z,20.50
2022-10-17T09:52:02.943Z,20.60
2022-10-17T09:54:41.101Z,20.70
2022-10-17T09:57:11.403Z,20.80
2022-10-17T09:59:43.569Z,20.90
2022-10-17T10:02:19.639Z,21.00
2022-10-17T10:05:05.534Z,21.10
2022-10-17T10:07:36.650Z,21.30
2022-10-17T10:10:07.928Z,21.40
2022-10-17T10:12:38.592Z,21.60
2022-10-17T10:28:32.455Z,21.70
2022-10-17T10:31:04.672Z,24.50
2022-10-17T10:33:48.178Z,25.10
2022-10-17T10:36:21.854Z,25.60
2022-10-17T10:39:06.254Z,26.10
2022-10-17T10:41:48.610Z,26.70
2022-10-17T10:44:23.086Z,27.30
2022-10-17T10:47:08.518Z,27.80
2022-10-17T10:49:37.265Z,28.30
2022-10-17T10:52:07.983Z,28.60
2022-10-17T10:55:03.655Z,29.00
2022-10-17T10:57:48.056Z,29.40
2022-10-17T11:00:53.950Z,29.90
2022-10-17T11:03:32.472Z,30.30
2022-10-17T11:06:05.500Z,30.70
2022-10-17T11:08:41.476Z,30.90
2022-10-17T11:11:18.363Z,31.30
2022-10-17T11:13:53.285Z,31.50
2022-10-17T11:16:32.348Z,31.50
2022-10-17T11:19:07.801Z,31.70
2022-10-17T11:21:49.014Z,31.70
2022-10-17T11:24:23.947Z,31.90
2022-10-17T11:27:00.648Z,32.30
2022-10-17T11:29:33.027Z,32.70
2022-10-17T11:32:08.114Z,32.90
2022-10-17T11:34:42.286Z,33.10
2022-10-17T11:37:17.108Z,32.90
2022-10-17T11:39:50.962Z,33.00
2022-10-17T11:42:24.684Z,33.00
2022-10-17T11:44:59.827Z,33.00
2022-10-17T11:47:37.545Z,32.90
2022-10-17T11:53:10.910Z,33.10
2022-10-17T11:55:39.717Z,33.00
2022-10-17T11:58:30.899Z,33.10
2022-10-17T12:01:10.957Z,33.30
2022-10-17T12:04:03.675Z,33.50
2022-10-17T12:06:51.222Z,33.70
2022-10-17T12:09:26.155Z,33.80
2022-10-17T12:11:58.292Z,34.10
2022-10-17T12:14:38.366Z,34.30
2022-10-17T12:17:22.651Z,34.60
2022-10-17T12:19:52.490Z,34.90
2022-10-17T12:22:25.996Z,35.20
2022-10-17T12:25:00.823Z,35.40
2022-10-17T12:27:37.119Z,35.50
2022-10-17T12:30:15.883Z,35.60
2022-10-17T12:33:07.169Z,35.70
2022-10-17T12:35:39.726Z,35.80
2022-10-17T12:38:23.298Z,35.80
2022-10-17T12:41:00.097Z,35.70
2022-10-17T12:43:46.873Z,35.80
2022-10-17T12:46:51.140Z,35.90
2022-10-17T12:49:38.258Z,36.20
2022-10-17T12:52:20.387Z,36.50
2022-10-17T12:55:13.030Z,36.60
2022-10-17T12:57:51.637Z,36.90
2022-10-17T13:00:25.053Z,37.40
2022-10-17T13:02:57.257Z,37.70
2022-10-17T13:05:33.966Z,38.00
2022-10-17T13:08:05.725Z,37.90
2022-10-17T13:10:40.699Z,37.90
2022-10-17T13:13:17.449Z,37.70
2022-10-17T13:15:50.327Z,37.70
2022-10-17T13:18:22.742Z,37.80
2022-10-17T13:21:01.346Z,38.00
2022-10-17T13:23:33.109Z,37.90
2022-10-17T13:26:20.198Z,37.70
2022-10-17T13:29:01.969Z,37.60
2022-10-17T13:31:42.429Z,37.90
2022-10-17T13:34:19.191Z,38.40
2022-10-17T13:36:52.206Z,38.80
2022-10-17T13:39:38.195Z,39.10
2022-10-17T13:42:21.489Z,39.50
2022-10-17T13:44:50.774Z,39.90
2022-10-17T13:47:23.893Z,40.00
2022-10-17T13:49:55.405Z,40.10
2022-10-17T13:52:28.597Z,40.20
2022-10-17T13:55:06.880Z,40.00
2022-10-17T13:57:35.188Z,40.10
2022-10-17T14:00:10.003Z,40.20
2022-10-17T14:02:43.343Z,40.10
2022-10-17T14:05:19.004Z,39.90
2022-10-17T14:10:43.117Z,39.10
2022-10-17T14:13:22.225Z,38.80
2022-10-17T14:15:54.770Z,38.70
2022-10-17T14:18:26.153Z,38.60
2022-10-17T14:21:32.087Z,38.70
2022-10-17T14:23:45.523Z,38.70
2022-10-17T14:26:16.621Z,38.70
2022-10-17T14:28:47.921Z,38.70
2022-10-17T14:31:30.970Z,38.70
2022-10-17T14:34:01.033Z,38.80
2022-10-17T14:36:35.930Z,39.00
2022-10-17T14:39:13.316Z,39.10
2022-10-17T14:41:45.569Z,39.30
2022-10-17T14:44:30.137Z,39.30
2022-10-17T14:47:13.434Z,39.30
2022-10-17T14:49:52.113Z,39.20
2022-10-17T14:52:28.358Z,39.20
2022-10-17T14:54:59.905Z,39.00
2022-10-17T14:57:44.002Z,38.70
2022-10-17T15:00:16.339Z,38.50
2022-10-17T15:02:45.567Z,38.40
2022-10-17T15:05:14.547Z,38.50
2022-10-17T15:07:43.757Z,38.50
2022-10-17T15:10:28.402Z,38.50
2022-10-17T15:12:59.121Z,38.60
2022-10-17T15:15:28.749Z,38.70
2022-10-17T15:17:57.112Z,38.80
2022-10-17T15:20:28.046Z,38.90
2022-10-17T15:22:56.766Z,38.90
2022-10-17T15:25:27.373Z,39.00
2022-10-17T15:27:56.075Z,38.90
2022-10-17T15:30:26.064Z,38.80
2022-10-17T15:32:54.783Z,38.60
2022-10-17T15:35:23.957Z,38.40
2022-10-17T15:37:52.299Z,38.20
2022-10-17T15:40:22.346Z,37.90
2022-10-17T15:42:52.505Z,37.50
2022-10-17T15:45:22.313Z,36.80
2022-10-17T15:47:53.439Z,36.00
2022-10-17T15:50:22.539Z,35.00
2022-10-17T15:52:52.279Z,33.90
2022-10-17T15:55:21.380Z,32.80
2022-10-17T15:57:52.099Z,32.00
2022-10-17T16:00:22.256Z,31.30
2022-10-17T16:02:53.512Z,30.70
2022-10-17T16:05:23.659Z,30.20
2022-10-17T16:07:52.501Z,29.60
2022-10-17T16:10:22.201Z,29.20
2022-10-17T16:12:51.914Z,28.80
2022-10-17T16:15:23.403Z,28.40
2022-10-17T16:17:52.301Z,28.00
2022-10-17T16:20:21.432Z,27.70
2022-10-17T16:22:50.613Z,27.30
2022-10-17T16:25:21.708Z,26.90
2022-10-17T16:27:55.191Z,26.50
2022-10-17T16:30:25.792Z,26.20
2022-10-17T16:32:55.181Z,25.80
2022-10-17T16:35:25.698Z,25.40
2022-10-17T16:37:54.111Z,25.00
2022-10-17T16:40:22.449Z,24.70
2022-10-17T16:42:52.077Z,24.50
2022-10-17T16:45:22.288Z,24.30
2022-10-17T16:47:51.000Z,24.00
2022-10-17T16:50:19.978Z,23.80
2022-10-17T16:52:48.316Z,23.70
2022-10-17T16:55:18.781Z,23.50
2022-10-17T16:57:48.947Z,23.30
2022-10-17T17:00:19.268Z,23.20
2022-10-17T17:02:49.374Z,23.10
2022-10-17T17:05:17.928Z,23.00
2022-10-17T17:07:47.806Z,22.80
2022-10-17T17:10:16.242Z,22.70
2022-10-17T17:12:44.506Z,22.60
2022-10-17T17:15:12.827Z,22.40
2022-10-17T17:17:50.628Z,22.30
2022-10-17T17:20:21.999Z,22.20
2022-10-17T17:22:50.865Z,22.10
2022-10-17T17:25:19.255Z,22.00
2022-10-17T17:27:47.741Z,21.80
2022-10-17T17:30:16.503Z,21.70
2022-10-17T17:32:46.156Z,21.60
2022-10-17T17:35:14.428Z,21.50
2022-10-17T17:37:42.892Z,21.40
2022-10-17T17:40:12.264Z,21.30
2022-10-17T17:42:40.561Z,21.20
2022-10-17T17:45:11.350Z,21.10
2022-10-17T17:47:39.983Z,21.00
2022-10-17T17:50:10.488Z,20.90
2022-10-17T17:52:40.275Z,20.80
2022-10-17T17:55:09.421Z,20.70
2022-10-17T17:57:37.761Z,20.70
2022-10-17T18:00:07.410Z,20.60
2022-10-17T18:02:36.425Z,20.50
2022-10-17T18:05:07.936Z,20.40
2022-10-17T18:07:38.868Z,20.30
2022-10-17T18:10:08.517Z,20.20
2022-10-17T18:12:36.965Z,20.20
2022-10-17T18:15:06.479Z,20.10
2022-10-17T18:17:35.519Z,20.00
2022-10-17T18:20:04.085Z,19.90
2022-10-17T18:22:32.721Z,19.80
2022-10-17T18:25:02.631Z,19.80
2022-10-17T18:27:31.229Z,19.70
2022-10-17T18:29:59.582Z,19.60
2022-10-17T18:32:30.998Z,19.50
2022-10-17T18:34:59.792Z,19.40
2022-10-17T18:37:28.264Z,19.30
2022-10-17T18:39:57.468Z,19.20
2022-10-17T18:42:27.252Z,19.10
2022-10-17T18:44:55.746Z,19.00
2022-10-17T18:47:23.991Z,19.00
2022-10-17T18:49:52.572Z,18.90
2022-10-17T18:52:20.873Z,18.90
2022-10-17T18:54:49.159Z,18.90
2022-10-17T18:57:17.878Z,18.90
2022-10-17T18:59:49.220Z,18.80
2022-10-17T19:02:17.543Z,18.80
2022-10-17T19:04:46.512Z,18.80
2022-10-17T19:07:17.204Z,18.70
2022-10-17T19:09:45.556Z,18.70
2022-10-17T19:12:14.041Z,18.60
2022-10-17T19:14:42.345Z,18.60
2022-10-17T19:17:12.026Z,18.50
2022-10-17T19:19:41.427Z,18.50
2022-10-17T19:22:10.208Z,18.50
2022-10-17T19:24:38.819Z,18.50
2022-10-17T19:27:07.479Z,18.40
2022-10-17T19:29:35.966Z,18.40
2022-10-17T19:32:06.883Z,18.30
2022-10-17T19:34:38.754Z,18.30
2022-10-17T19:37:07.146Z,18.20
2022-10-17T19:39:35.488Z,18.10
2022-10-17T19:42:06.718Z,18.10
2022-10-17T19:44:35.713Z,18.00
2022-10-17T19:47:03.967Z,18.00
2022-10-17T19:49:32.320Z,18.00
2022-10-17T19:52:01.988Z,17.90
2022-10-17T19:54:30.314Z,17.90
2022-10-17T19:56:58.776Z,17.90
2022-10-17T19:59:27.118Z,17.90
2022-10-17T20:01:55.440Z,17.90
2022-10-17T20:04:24.245Z,17.90
2022-10-17T20:06:52.523Z,17.80
2022-10-17T20:09:22.279Z,17.80
2022-10-17T20:11:51.119Z,17.80
2022-10-17T20:14:19.640Z,17.70
2022-10-17T20:16:52.237Z,17.70
2022-10-17T20:19:21.549Z,17.60
2022-10-17T20:21:49.962Z,17.60
2022-10-17T20:24:18.422Z,17.50
2022-10-17T20:26:48.090Z,17.50
2022-10-17T20:29:19.301Z,17.40
2022-10-17T20:31:48.922Z,17.40
2022-10-17T20:34:18.585Z,17.30
2022-10-17T20:36:47.827Z,17.30
2022-10-17T20:39:17.852Z,17.20
2022-10-17T20:41:48.299Z,17.20
2022-10-17T20:44:16.919Z,17.20
2022-10-17T20:47:00.749Z,17.10
2022-10-17T20:49:30.563Z,17.10
2022-10-17T20:51:59.347Z,17.10
2022-10-17T20:54:28.826Z,17.10
2022-10-17T20:57:01.094Z,17.10
2022-10-17T20:59:34.334Z,17.10
2022-10-17T21:02:02.971Z,17.20
2022-10-17T21:04:47.418Z,17.20
2022-10-17T21:07:16.094Z,17.20
2022-10-17T21:09:46.357Z,17.30
2022-10-17T21:12:25.885Z,17.30
2022-10-17T21:15:00.092Z,17.30
2022-10-17T21:17:28.947Z,17.30
2022-10-17T21:19:57.199Z,17.20
2022-10-17T21:22:25.646Z,17.20
2022-10-17T21:24:54.143Z,17.20
2022-10-17T21:27:23.778Z,17.20
2022-10-17T21:29:52.270Z,17.20
2022-10-17T21:32:33.395Z,17.20
2022-10-17T21:35:09.450Z,17.30
2022-10-17T21:37:37.717Z,17.30
2022-10-17T21:40:07.132Z,17.30
2022-10-17T21:42:36.933Z,17.40
2022-10-17T21:45:15.254Z,17.40
2022-10-17T21:48:11.610Z,17.40
2022-10-17T21:50:36.836Z,17.40
2022-10-17T21:53:05.213Z,17.40
2022-10-17T21:55:33.493Z,17.40
2022-10-17T21:58:03.266Z,17.40
2022-10-17T22:00:31.845Z,17.40
2022-10-17T22:03:01.050Z,17.30
2022-10-17T22:05:30.285Z,17.30
2022-10-17T22:07:58.668Z,17.40
2022-10-17T22:10:26.986Z,17.40
2022-10-17T22:12:55.217Z,17.50
2022-10-17T22:15:24.821Z,17.60
2022-10-17T22:17:53.234Z,17.60
2022-10-17T22:20:21.839Z,17.70
2022-10-17T22:22:50.173Z,17.70
2022-10-17T22:25:18.689Z,17.80
2022-10-17T22:27:47.889Z,17.90
2022-10-17T22:30:16.558Z,18.00
2022-10-17T22:32:46.781Z,18.10
2022-10-17T22:35:15.294Z,18.20
2022-10-17T22:37:43.736Z,18.20
2022-10-17T22:40:12.977Z,18.30
2022-10-17T22:42:41.381Z,18.40
2022-10-17T22:45:10.475Z,18.50
2022-10-17T22:47:38.744Z,18.60
2022-10-17T22:50:08.964Z,18.70
2022-10-17T22:52:37.307Z,18.70
2022-10-17T22:55:06.230Z,18.70
2022-10-17T22:57:37.178Z,18.80
2022-10-17T23:00:06.423Z,18.80
2022-10-17T23:02:34.770Z,18.80
2022-10-17T23:05:03.531Z,18.90
2022-10-17T23:07:33.971Z,18.90
2022-10-17T23:10:02.389Z,18.90
2022-10-17T23:12:31.052Z,18.90
2022-10-17T23:14:59.486Z,19.00
2022-10-17T23:17:27.824Z,19.00
2022-10-17T23:19:57.711Z,19.00
2022-10-17T23:22:26.120Z,19.00
2022-10-17T23:24:55.860Z,19.00
2022-10-17T23:27:24.185Z,19.00
2022-10-17T23:29:52.514Z,19.00
2022-10-17T23:32:21.246Z,19.00
2022-10-17T23:34:49.595Z,19.10
2022-10-17T23:37:18.646Z,19.10
2022-10-17T23:39:47.000Z,19.00
2022-10-17T23:42:17.374Z,19.00
2022-10-17T23:44:45.667Z,19.00
2022-10-17T23:47:13.933Z,19.00
2022-10-17T23:49:42.302Z,19.00
2022-10-17T23:52:10.847Z,18.90
2022-10-17T23:54:39.109Z,18.90
2022-10-17T23:57:07.899Z,18.90
2022-10-17T23:59:37.548Z,18.90
